sensor_id;sensor_type;location;lat;lon;timestamp;P1;durP1;ratioP1;P2;durP2;ratioP2
51901;SDS011;37929;53.218;6.548;2023-03-20T00:04:02;7.35;;;4.05;;
51901;SDS011;37929;53.218;6.548;2023-03-20T00:06:28;6.07;;;4.03;;
51901;SDS011;37929;53.218;6.548;2023-03-20T00:08:54;6.82;;;3.95;;
51901;SDS011;37929;53.218;6.548;2023-03-20T00:11:26;6.40;;;3.67;;
51901;SDS011;37929;53.218;6.548;2023-03-20T00:16:22;10.45;;;4.20;;
51901;SDS011;37929;53.218;6.548;2023-03-20T00:18:51;7.38;;;3.67;;
51901;SDS011;37929;53.218;6.548;2023-03-20T00:21:18;8.15;;;3.75;;
51901;SDS011;37929;53.218;6.548;2023-03-20T00:23:44;7.00;;;4.15;;
51901;SDS011;37929;53.218;6.548;2023-03-20T00:26:13;8.70;;;4.07;;
51901;SDS011;37929;53.218;6.548;2023-03-20T00:28:48;7.93;;;4.07;;
51901;SDS011;37929;53.218;6.548;2023-03-20T00:33:48;6.25;;;3.50;;
51901;SDS011;37929;53.218;6.548;2023-03-20T00:36:15;8.05;;;3.88;;
51901;SDS011;37929;53.218;6.548;2023-03-20T00:38:40;6.63;;;3.55;;
51901;SDS011;37929;53.218;6.548;2023-03-20T00:41:29;6.88;;;3.45;;
51901;SDS011;37929;53.218;6.548;2023-03-20T00:44:18;8.02;;;4.20;;
51901;SDS011;37929;53.218;6.548;2023-03-20T00:46:48;8.50;;;3.50;;
51901;SDS011;37929;53.218;6.548;2023-03-20T00:49:30;5.90;;;3.60;;
51901;SDS011;37929;53.218;6.548;2023-03-20T00:51:59;5.60;;;3.47;;
51901;SDS011;37929;53.218;6.548;2023-03-20T00:54:26;7.35;;;3.47;;
51901;SDS011;37929;53.218;6.548;2023-03-20T00:56:59;7.57;;;3.67;;
51901;SDS011;37929;53.218;6.548;2023-03-20T00:59:55;6.32;;;3.70;;
51901;SDS011;37929;53.218;6.548;2023-03-20T01:02:27;6.95;;;3.58;;
51901;SDS011;37929;53.218;6.548;2023-03-20T01:04:55;7.00;;;4.00;;
51901;SDS011;37929;53.218;6.548;2023-03-20T01:07:21;6.38;;;3.63;;
51901;SDS011;37929;53.218;6.548;2023-03-20T01:09:47;9.30;;;3.80;;
51901;SDS011;37929;53.218;6.548;2023-03-20T01:12:13;9.25;;;3.78;;
51901;SDS011;37929;53.218;6.548;2023-03-20T01:14:40;7.30;;;3.97;;
51901;SDS011;37929;53.218;6.548;2023-03-20T01:17:17;10.02;;;3.67;;
51901;SDS011;37929;53.218;6.548;2023-03-20T01:19:44;8.95;;;4.10;;
51901;SDS011;37929;53.218;6.548;2023-03-20T01:22:10;6.28;;;4.10;;
51901;SDS011;37929;53.218;6.548;2023-03-20T01:24:38;9.40;;;4.40;;
51901;SDS011;37929;53.218;6.548;2023-03-20T01:27:04;8.63;;;3.70;;
51901;SDS011;37929;53.218;6.548;2023-03-20T01:29:38;6.55;;;4.13;;
51901;SDS011;37929;53.218;6.548;2023-03-20T01:32:06;9.00;;;3.83;;
51901;SDS011;37929;53.218;6.548;2023-03-20T01:34:36;7.13;;;3.70;;
51901;SDS011;37929;53.218;6.548;2023-03-20T01:37:05;6.90;;;3.95;;
51901;SDS011;37929;53.218;6.548;2023-03-20T01:39:36;8.60;;;4.15;;
51901;SDS011;37929;53.218;6.548;2023-03-20T01:42:02;8.07;;;3.75;;
51901;SDS011;37929;53.218;6.548;2023-03-20T01:44:31;7.20;;;4.43;;
51901;SDS011;37929;53.218;6.548;2023-03-20T01:46:59;9.15;;;3.88;;
51901;SDS011;37929;53.218;6.548;2023-03-20T01:51:52;9.90;;;4.57;;
51901;SDS011;37929;53.218;6.548;2023-03-20T01:57:16;6.97;;;4.03;;
51901;SDS011;37929;53.218;6.548;2023-03-20T02:02:12;9.35;;;4.68;;
51901;SDS011;37929;53.218;6.548;2023-03-20T02:04:42;8.68;;;4.63;;
51901;SDS011;37929;53.218;6.548;2023-03-20T02:07:12;7.68;;;4.75;;
51901;SDS011;37929;53.218;6.548;2023-03-20T02:09:41;8.48;;;4.70;;
51901;SDS011;37929;53.218;6.548;2023-03-20T02:12:06;10.38;;;4.28;;
51901;SDS011;37929;53.218;6.548;2023-03-20T02:14:32;12.00;;;4.97;;
51901;SDS011;37929;53.218;6.548;2023-03-20T02:17:08;12.50;;;5.13;;
51901;SDS011;37929;53.218;6.548;2023-03-20T02:39:17;17.52;;;5.85;;
51901;SDS011;37929;53.218;6.548;2023-03-20T02:42:02;18.23;;;6.15;;
51901;SDS011;37929;53.218;6.548;2023-03-20T02:47:43;16.13;;;5.75;;
51901;SDS011;37929;53.218;6.548;2023-03-20T02:50:22;18.23;;;6.00;;
51901;SDS011;37929;53.218;6.548;2023-03-20T02:55:40;15.27;;;6.38;;
51901;SDS011;37929;53.218;6.548;2023-03-20T03:00:51;10.40;;;5.57;;
51901;SDS011;37929;53.218;6.548;2023-03-20T03:03:32;10.77;;;5.25;;
51901;SDS011;37929;53.218;6.548;2023-03-20T03:08:35;16.15;;;5.88;;
51901;SDS011;37929;53.218;6.548;2023-03-20T03:11:06;11.27;;;5.57;;
51901;SDS011;37929;53.218;6.548;2023-03-20T03:13:37;14.52;;;6.13;;
51901;SDS011;37929;53.218;6.548;2023-03-20T03:16:11;12.40;;;6.47;;
51901;SDS011;37929;53.218;6.548;2023-03-20T03:18:41;14.60;;;5.35;;
51901;SDS011;37929;53.218;6.548;2023-03-20T03:21:11;16.23;;;6.78;;
51901;SDS011;37929;53.218;6.548;2023-03-20T03:23:41;12.02;;;5.57;;
51901;SDS011;37929;53.218;6.548;2023-03-20T03:26:21;11.52;;;5.72;;
51901;SDS011;37929;53.218;6.548;2023-03-20T03:28:53;15.63;;;6.75;;
51901;SDS011;37929;53.218;6.548;2023-03-20T03:31:22;11.20;;;5.38;;
51901;SDS011;37929;53.218;6.548;2023-03-20T03:33:50;15.93;;;6.22;;
51901;SDS011;37929;53.218;6.548;2023-03-20T03:36:30;12.77;;;6.22;;
51901;SDS011;37929;53.218;6.548;2023-03-20T03:43:56;12.68;;;5.90;;
51901;SDS011;37929;53.218;6.548;2023-03-20T03:46:52;15.18;;;6.47;;
51901;SDS011;37929;53.218;6.548;2023-03-20T03:49:27;14.98;;;6.47;;
51901;SDS011;37929;53.218;6.548;2023-03-20T03:51:57;14.73;;;5.68;;
51901;SDS011;37929;53.218;6.548;2023-03-20T03:54:32;12.65;;;6.38;;
51901;SDS011;37929;53.218;6.548;2023-03-20T03:59:32;14.30;;;5.85;;
51901;SDS011;37929;53.218;6.548;2023-03-20T04:02:08;10.73;;;6.40;;
51901;SDS011;37929;53.218;6.548;2023-03-20T04:04:35;13.88;;;6.63;;
51901;SDS011;37929;53.218;6.548;2023-03-20T04:07:07;12.40;;;6.47;;
51901;SDS011;37929;53.218;6.548;2023-03-20T04:09:32;11.00;;;6.45;;
51901;SDS011;37929;53.218;6.548;2023-03-20T04:11:58;12.32;;;6.10;;
51901;SDS011;37929;53.218;6.548;2023-03-20T04:14:24;13.23;;;5.90;;
51901;SDS011;37929;53.218;6.548;2023-03-20T04:16:51;12.90;;;6.30;;
51901;SDS011;37929;53.218;6.548;2023-03-20T04:19:17;13.57;;;6.30;;
51901;SDS011;37929;53.218;6.548;2023-03-20T04:21:46;12.73;;;6.18;;
51901;SDS011;37929;53.218;6.548;2023-03-20T04:24:11;12.10;;;6.05;;
51901;SDS011;37929;53.218;6.548;2023-03-20T04:26:37;11.30;;;6.10;;
51901;SDS011;37929;53.218;6.548;2023-03-20T04:29:04;11.57;;;5.65;;
51901;SDS011;37929;53.218;6.548;2023-03-20T04:31:30;13.38;;;6.13;;
51901;SDS011;37929;53.218;6.548;2023-03-20T04:33:56;10.27;;;5.75;;
51901;SDS011;37929;53.218;6.548;2023-03-20T04:36:22;12.07;;;5.68;;
51901;SDS011;37929;53.218;6.548;2023-03-20T04:38:48;13.10;;;6.85;;
51901;SDS011;37929;53.218;6.548;2023-03-20T04:41:14;11.07;;;5.32;;
51901;SDS011;37929;53.218;6.548;2023-03-20T04:43:40;10.75;;;6.18;;
51901;SDS011;37929;53.218;6.548;2023-03-20T04:46:06;12.32;;;6.53;;
51901;SDS011;37929;53.218;6.548;2023-03-20T04:48:32;12.20;;;6.47;;
51901;SDS011;37929;53.218;6.548;2023-03-20T04:50:57;12.73;;;5.75;;
51901;SDS011;37929;53.218;6.548;2023-03-20T04:53:23;10.50;;;6.00;;
51901;SDS011;37929;53.218;6.548;2023-03-20T04:55:49;14.68;;;6.15;;
51901;SDS011;37929;53.218;6.548;2023-03-20T04:58:15;14.50;;;6.63;;
51901;SDS011;37929;53.218;6.548;2023-03-20T05:00:42;13.07;;;6.38;;
51901;SDS011;37929;53.218;6.548;2023-03-20T05:03:08;13.60;;;6.78;;
51901;SDS011;37929;53.218;6.548;2023-03-20T05:05:33;13.82;;;5.85;;
51901;SDS011;37929;53.218;6.548;2023-03-20T05:08:03;15.63;;;6.72;;
51901;SDS011;37929;53.218;6.548;2023-03-20T05:10:30;13.07;;;6.20;;
51901;SDS011;37929;53.218;6.548;2023-03-20T05:12:56;11.05;;;6.47;;
51901;SDS011;37929;53.218;6.548;2023-03-20T05:15:22;10.38;;;6.25;;
51901;SDS011;37929;53.218;6.548;2023-03-20T05:17:47;12.10;;;6.97;;
51901;SDS011;37929;53.218;6.548;2023-03-20T05:20:13;14.57;;;6.40;;
51901;SDS011;37929;53.218;6.548;2023-03-20T05:22:40;16.48;;;6.40;;
51901;SDS011;37929;53.218;6.548;2023-03-20T05:25:06;15.05;;;6.93;;
51901;SDS011;37929;53.218;6.548;2023-03-20T05:27:32;12.95;;;6.05;;
51901;SDS011;37929;53.218;6.548;2023-03-20T05:29:57;15.35;;;5.88;;
51901;SDS011;37929;53.218;6.548;2023-03-20T05:32:23;15.35;;;6.30;;
51901;SDS011;37929;53.218;6.548;2023-03-20T05:34:49;10.98;;;6.10;;
51901;SDS011;37929;53.218;6.548;2023-03-20T05:37:15;11.07;;;6.75;;
51901;SDS011;37929;53.218;6.548;2023-03-20T05:39:41;12.55;;;6.78;;
51901;SDS011;37929;53.218;6.548;2023-03-20T05:42:07;14.18;;;6.45;;
51901;SDS011;37929;53.218;6.548;2023-03-20T05:44:33;12.15;;;5.88;;
51901;SDS011;37929;53.218;6.548;2023-03-20T05:46:58;13.77;;;6.53;;
51901;SDS011;37929;53.218;6.548;2023-03-20T05:49:25;12.70;;;6.43;;
51901;SDS011;37929;53.218;6.548;2023-03-20T05:51:50;15.10;;;6.57;;
51901;SDS011;37929;53.218;6.548;2023-03-20T05:54:16;11.80;;;5.93;;
51901;SDS011;37929;53.218;6.548;2023-03-20T05:56:42;14.65;;;6.18;;
51901;SDS011;37929;53.218;6.548;2023-03-20T05:59:09;10.15;;;5.50;;
51901;SDS011;37929;53.218;6.548;2023-03-20T06:01:35;12.95;;;6.22;;
51901;SDS011;37929;53.218;6.548;2023-03-20T06:04:01;11.77;;;5.75;;
51901;SDS011;37929;53.218;6.548;2023-03-20T06:06:27;11.63;;;6.28;;
51901;SDS011;37929;53.218;6.548;2023-03-20T06:08:53;10.57;;;5.95;;
51901;SDS011;37929;53.218;6.548;2023-03-20T06:11:19;14.48;;;6.32;;
51901;SDS011;37929;53.218;6.548;2023-03-20T06:13:45;14.52;;;6.35;;
51901;SDS011;37929;53.218;6.548;2023-03-20T06:16:11;13.35;;;6.70;;
51901;SDS011;37929;53.218;6.548;2023-03-20T06:18:36;12.55;;;6.55;;
51901;SDS011;37929;53.218;6.548;2023-03-20T06:21:03;12.15;;;5.80;;
51901;SDS011;37929;53.218;6.548;2023-03-20T06:23:30;12.15;;;5.82;;
51901;SDS011;37929;53.218;6.548;2023-03-20T06:25:55;11.18;;;6.18;;
51901;SDS011;37929;53.218;6.548;2023-03-20T06:28:21;11.90;;;6.00;;
51901;SDS011;37929;53.218;6.548;2023-03-20T06:30:49;15.18;;;6.95;;
51901;SDS011;37929;53.218;6.548;2023-03-20T06:33:17;14.32;;;6.97;;
51901;SDS011;37929;53.218;6.548;2023-03-20T06:35:44;14.50;;;6.68;;
51901;SDS011;37929;53.218;6.548;2023-03-20T06:38:10;16.38;;;7.40;;
51901;SDS011;37929;53.218;6.548;2023-03-20T06:40:36;12.75;;;6.20;;
51901;SDS011;37929;53.218;6.548;2023-03-20T06:43:02;14.13;;;7.20;;
51901;SDS011;37929;53.218;6.548;2023-03-20T06:45:29;14.93;;;7.00;;
51901;SDS011;37929;53.218;6.548;2023-03-20T06:47:54;12.65;;;7.07;;
51901;SDS011;37929;53.218;6.548;2023-03-20T06:50:20;12.82;;;6.93;;
51901;SDS011;37929;53.218;6.548;2023-03-20T06:52:48;12.35;;;6.70;;
51901;SDS011;37929;53.218;6.548;2023-03-20T06:55:14;13.48;;;7.22;;
51901;SDS011;37929;53.218;6.548;2023-03-20T06:57:40;16.30;;;6.82;;
51901;SDS011;37929;53.218;6.548;2023-03-20T07:00:06;15.65;;;7.07;;
51901;SDS011;37929;53.218;6.548;2023-03-20T07:02:33;12.88;;;6.53;;
51901;SDS011;37929;53.218;6.548;2023-03-20T07:04:59;14.57;;;6.57;;
51901;SDS011;37929;53.218;6.548;2023-03-20T07:07:25;14.85;;;6.80;;
51901;SDS011;37929;53.218;6.548;2023-03-20T07:09:51;12.88;;;6.70;;
51901;SDS011;37929;53.218;6.548;2023-03-20T07:12:16;15.23;;;7.53;;
51901;SDS011;37929;53.218;6.548;2023-03-20T07:14:44;15.35;;;7.22;;
51901;SDS011;37929;53.218;6.548;2023-03-20T07:17:13;15.50;;;7.13;;
51901;SDS011;37929;53.218;6.548;2023-03-20T07:19:39;12.13;;;7.07;;
51901;SDS011;37929;53.218;6.548;2023-03-20T07:22:06;12.30;;;7.35;;
51901;SDS011;37929;53.218;6.548;2023-03-20T07:24:37;12.63;;;6.82;;
51901;SDS011;37929;53.218;6.548;2023-03-20T07:27:02;18.02;;;7.75;;
51901;SDS011;37929;53.218;6.548;2023-03-20T07:29:28;15.00;;;7.72;;
51901;SDS011;37929;53.218;6.548;2023-03-20T07:31:54;12.30;;;6.55;;
51901;SDS011;37929;53.218;6.548;2023-03-20T07:34:21;13.95;;;7.30;;
51901;SDS011;37929;53.218;6.548;2023-03-20T07:36:46;11.70;;;6.70;;
51901;SDS011;37929;53.218;6.548;2023-03-20T07:39:12;17.35;;;7.65;;
51901;SDS011;37929;53.218;6.548;2023-03-20T07:41:38;12.10;;;6.95;;
51901;SDS011;37929;53.218;6.548;2023-03-20T07:44:04;15.75;;;8.00;;
51901;SDS011;37929;53.218;6.548;2023-03-20T07:46:32;15.73;;;8.13;;
51901;SDS011;37929;53.218;6.548;2023-03-20T07:48:58;13.85;;;7.47;;
51901;SDS011;37929;53.218;6.548;2023-03-20T07:51:24;14.52;;;6.97;;
51901;SDS011;37929;53.218;6.548;2023-03-20T07:53:50;15.85;;;7.70;;
51901;SDS011;37929;53.218;6.548;2023-03-20T07:56:15;16.40;;;8.85;;
51901;SDS011;37929;53.218;6.548;2023-03-20T07:58:41;13.98;;;7.43;;
51901;SDS011;37929;53.218;6.548;2023-03-20T08:01:07;18.10;;;7.60;;
51901;SDS011;37929;53.218;6.548;2023-03-20T08:03:33;17.67;;;8.23;;
51901;SDS011;37929;53.218;6.548;2023-03-20T08:05:59;14.27;;;7.90;;
51901;SDS011;37929;53.218;6.548;2023-03-20T08:08:25;14.10;;;7.65;;
51901;SDS011;37929;53.218;6.548;2023-03-20T08:10:51;14.88;;;7.78;;
51901;SDS011;37929;53.218;6.548;2023-03-20T08:13:17;15.63;;;7.88;;
51901;SDS011;37929;53.218;6.548;2023-03-20T08:15:46;15.52;;;7.72;;
51901;SDS011;37929;53.218;6.548;2023-03-20T08:18:14;14.15;;;7.47;;
51901;SDS011;37929;53.218;6.548;2023-03-20T08:20:40;16.48;;;7.90;;
51901;SDS011;37929;53.218;6.548;2023-03-20T08:23:06;15.82;;;7.75;;
51901;SDS011;37929;53.218;6.548;2023-03-20T08:25:34;14.73;;;7.50;;
51901;SDS011;37929;53.218;6.548;2023-03-20T08:28:00;18.77;;;8.48;;
51901;SDS011;37929;53.218;6.548;2023-03-20T08:30:28;14.40;;;7.50;;
51901;SDS011;37929;53.218;6.548;2023-03-20T08:32:54;17.20;;;8.57;;
51901;SDS011;37929;53.218;6.548;2023-03-20T08:35:22;16.45;;;8.18;;
51901;SDS011;37929;53.218;6.548;2023-03-20T08:37:48;15.80;;;7.95;;
51901;SDS011;37929;53.218;6.548;2023-03-20T08:40:14;14.65;;;7.25;;
51901;SDS011;37929;53.218;6.548;2023-03-20T08:42:43;17.33;;;8.82;;
51901;SDS011;37929;53.218;6.548;2023-03-20T08:45:10;14.10;;;7.25;;
51901;SDS011;37929;53.218;6.548;2023-03-20T08:47:36;14.73;;;7.28;;
51901;SDS011;37929;53.218;6.548;2023-03-20T08:50:04;17.95;;;8.23;;
51901;SDS011;37929;53.218;6.548;2023-03-20T08:52:31;13.98;;;7.13;;
51901;SDS011;37929;53.218;6.548;2023-03-20T08:54:57;16.25;;;7.78;;
51901;SDS011;37929;53.218;6.548;2023-03-20T08:57:23;20.10;;;8.23;;
51901;SDS011;37929;53.218;6.548;2023-03-20T08:59:51;15.70;;;8.00;;
51901;SDS011;37929;53.218;6.548;2023-03-20T09:02:17;17.33;;;7.78;;
51901;SDS011;37929;53.218;6.548;2023-03-20T09:04:43;17.20;;;8.65;;
51901;SDS011;37929;53.218;6.548;2023-03-20T09:07:09;13.18;;;7.57;;
51901;SDS011;37929;53.218;6.548;2023-03-20T09:09:35;14.55;;;7.13;;
51901;SDS011;37929;53.218;6.548;2023-03-20T09:12:01;14.63;;;7.78;;
51901;SDS011;37929;53.218;6.548;2023-03-20T09:14:27;16.05;;;8.10;;
51901;SDS011;37929;53.218;6.548;2023-03-20T09:16:53;14.90;;;7.05;;
51901;SDS011;37929;53.218;6.548;2023-03-20T09:19:19;14.55;;;7.15;;
51901;SDS011;37929;53.218;6.548;2023-03-20T09:21:45;12.45;;;6.95;;
51901;SDS011;37929;53.218;6.548;2023-03-20T09:24:11;12.95;;;7.20;;
51901;SDS011;37929;53.218;6.548;2023-03-20T09:26:37;13.02;;;7.18;;
51901;SDS011;37929;53.218;6.548;2023-03-20T09:29:04;15.95;;;7.20;;
51901;SDS011;37929;53.218;6.548;2023-03-20T09:31:30;14.20;;;6.85;;
51901;SDS011;37929;53.218;6.548;2023-03-20T09:33:56;13.15;;;6.82;;
51901;SDS011;37929;53.218;6.548;2023-03-20T09:36:22;11.63;;;6.80;;
51901;SDS011;37929;53.218;6.548;2023-03-20T09:38:48;11.20;;;6.40;;
51901;SDS011;37929;53.218;6.548;2023-03-20T09:41:18;15.90;;;7.03;;
51901;SDS011;37929;53.218;6.548;2023-03-20T09:46:39;13.43;;;6.32;;
51901;SDS011;37929;53.218;6.548;2023-03-20T09:52:21;12.57;;;6.53;;
51901;SDS011;37929;53.218;6.548;2023-03-20T09:54:53;10.95;;;6.72;;
51901;SDS011;37929;53.218;6.548;2023-03-20T09:57:31;12.80;;;6.93;;
51901;SDS011;37929;53.218;6.548;2023-03-20T10:00:09;15.95;;;6.63;;
51901;SDS011;37929;53.218;6.548;2023-03-20T10:02:54;13.60;;;6.65;;
51901;SDS011;37929;53.218;6.548;2023-03-20T10:05:25;13.70;;;7.40;;
51901;SDS011;37929;53.218;6.548;2023-03-20T10:07:57;17.40;;;8.02;;
51901;SDS011;37929;53.218;6.548;2023-03-20T10:13:13;10.25;;;6.80;;
51901;SDS011;37929;53.218;6.548;2023-03-20T10:15:53;15.27;;;7.57;;
51901;SDS011;37929;53.218;6.548;2023-03-20T10:18:27;15.70;;;7.10;;
51901;SDS011;37929;53.218;6.548;2023-03-20T10:20:59;13.27;;;7.32;;
51901;SDS011;37929;53.218;6.548;2023-03-20T10:26:17;16.17;;;8.40;;
51901;SDS011;37929;53.218;6.548;2023-03-20T10:29:05;15.60;;;7.88;;
51901;SDS011;37929;53.218;6.548;2023-03-20T10:31:42;13.63;;;7.22;;
51901;SDS011;37929;53.218;6.548;2023-03-20T10:40:22;13.23;;;7.88;;
51901;SDS011;37929;53.218;6.548;2023-03-20T10:46:03;11.95;;;7.25;;
51901;SDS011;37929;53.218;6.548;2023-03-20T10:54:05;15.95;;;7.50;;
51901;SDS011;37929;53.218;6.548;2023-03-20T10:56:53;13.82;;;7.00;;
51901;SDS011;37929;53.218;6.548;2023-03-20T10:59:22;12.07;;;7.80;;
51901;SDS011;37929;53.218;6.548;2023-03-20T11:01:54;15.18;;;7.50;;
51901;SDS011;37929;53.218;6.548;2023-03-20T11:04:20;11.27;;;6.65;;
51901;SDS011;37929;53.218;6.548;2023-03-20T11:07:04;14.52;;;7.03;;
51901;SDS011;37929;53.218;6.548;2023-03-20T11:09:32;11.15;;;7.72;;
51901;SDS011;37929;53.218;6.548;2023-03-20T11:11:59;10.57;;;6.32;;
51901;SDS011;37929;53.218;6.548;2023-03-20T11:14:31;13.43;;;6.80;;
51901;SDS011;37929;53.218;6.548;2023-03-20T11:16:59;11.95;;;5.93;;
51901;SDS011;37929;53.218;6.548;2023-03-20T11:19:31;12.30;;;6.30;;
51901;SDS011;37929;53.218;6.548;2023-03-20T11:21:59;16.27;;;6.53;;
51901;SDS011;37929;53.218;6.548;2023-03-20T11:24:43;11.53;;;6.93;;
51901;SDS011;37929;53.218;6.548;2023-03-20T11:27:15;13.02;;;7.28;;
51901;SDS011;37929;53.218;6.548;2023-03-20T11:29:45;12.25;;;6.60;;
51901;SDS011;37929;53.218;6.548;2023-03-20T11:34:57;10.82;;;5.95;;
51901;SDS011;37929;53.218;6.548;2023-03-20T11:38:05;11.30;;;5.95;;
51901;SDS011;37929;53.218;6.548;2023-03-20T11:40:38;10.57;;;5.57;;
51901;SDS011;37929;53.218;6.548;2023-03-20T11:43:11;11.75;;;6.05;;
51901;SDS011;37929;53.218;6.548;2023-03-20T11:45:58;12.55;;;6.00;;
51901;SDS011;37929;53.218;6.548;2023-03-20T11:48:34;12.38;;;5.25;;
51901;SDS011;37929;53.218;6.548;2023-03-20T11:51:05;14.00;;;5.93;;
51901;SDS011;37929;53.218;6.548;2023-03-20T11:54:21;8.55;;;4.93;;
51901;SDS011;37929;53.218;6.548;2023-03-20T11:56:31;10.10;;;5.10;;
51901;SDS011;37929;53.218;6.548;2023-03-20T12:01:49;10.40;;;5.25;;
51901;SDS011;37929;53.218;6.548;2023-03-20T12:04:35;8.20;;;5.72;;
51901;SDS011;37929;53.218;6.548;2023-03-20T12:12:44;10.68;;;3.92;;
51901;SDS011;37929;53.218;6.548;2023-03-20T12:29:26;6.43;;;4.07;;
51901;SDS011;37929;53.218;6.548;2023-03-20T12:34:49;9.95;;;3.45;;
51901;SDS011;37929;53.218;6.548;2023-03-20T12:37:31;5.60;;;3.17;;
51901;SDS011;37929;53.218;6.548;2023-03-20T12:39:59;8.57;;;3.65;;
51901;SDS011;37929;53.218;6.548;2023-03-20T12:45:59;6.82;;;3.15;;
51901;SDS011;37929;53.218;6.548;2023-03-20T12:51:48;6.03;;;3.40;;
51901;SDS011;37929;53.218;6.548;2023-03-20T12:59:44;8.43;;;4.20;;
51901;SDS011;37929;53.218;6.548;2023-03-20T13:07:21;8.20;;;4.22;;
51901;SDS011;37929;53.218;6.548;2023-03-20T13:12:42;7.10;;;4.55;;
51901;SDS011;37929;53.218;6.548;2023-03-20T13:17:55;8.02;;;4.72;;
51901;SDS011;37929;53.218;6.548;2023-03-20T13:20:50;8.50;;;5.00;;
51901;SDS011;37929;53.218;6.548;2023-03-20T13:26:15;9.43;;;4.78;;
51901;SDS011;37929;53.218;6.548;2023-03-20T13:29:20;7.38;;;4.85;;
51901;SDS011;37929;53.218;6.548;2023-03-20T13:32:11;7.47;;;5.10;;
51901;SDS011;37929;53.218;6.548;2023-03-20T13:37:49;11.25;;;5.60;;
51901;SDS011;37929;53.218;6.548;2023-03-20T13:40:31;9.73;;;5.32;;
51901;SDS011;37929;53.218;6.548;2023-03-20T13:55:44;11.68;;;6.13;;
51901;SDS011;37929;53.218;6.548;2023-03-20T14:01:01;8.75;;;5.90;;
51901;SDS011;37929;53.218;6.548;2023-03-20T14:03:44;12.55;;;6.45;;
51901;SDS011;37929;53.218;6.548;2023-03-20T14:14:16;9.00;;;6.30;;
51901;SDS011;37929;53.218;6.548;2023-03-20T14:16:59;9.85;;;6.00;;
51901;SDS011;37929;53.218;6.548;2023-03-20T14:19:26;10.35;;;6.25;;
51901;SDS011;37929;53.218;6.548;2023-03-20T14:21:54;9.77;;;6.35;;
51901;SDS011;37929;53.218;6.548;2023-03-20T14:24:20;8.38;;;5.82;;
51901;SDS011;37929;53.218;6.548;2023-03-20T14:26:53;10.32;;;6.18;;
51901;SDS011;37929;53.218;6.548;2023-03-20T14:31:53;10.13;;;6.93;;
51901;SDS011;37929;53.218;6.548;2023-03-20T14:34:46;8.35;;;5.85;;
51901;SDS011;37929;53.218;6.548;2023-03-20T14:37:26;8.55;;;6.30;;
51901;SDS011;37929;53.218;6.548;2023-03-20T14:47:53;10.15;;;6.78;;
51901;SDS011;37929;53.218;6.548;2023-03-20T14:53:07;12.43;;;7.50;;
51901;SDS011;37929;53.218;6.548;2023-03-20T14:55:51;10.57;;;7.00;;
51901;SDS011;37929;53.218;6.548;2023-03-20T15:01:39;12.55;;;8.45;;
51901;SDS011;37929;53.218;6.548;2023-03-20T15:04:12;11.93;;;8.38;;
51901;SDS011;37929;53.218;6.548;2023-03-20T15:06:54;11.45;;;8.00;;
51901;SDS011;37929;53.218;6.548;2023-03-20T15:09:41;13.52;;;9.73;;
51901;SDS011;37929;53.218;6.548;2023-03-20T15:12:10;15.90;;;9.00;;
51901;SDS011;37929;53.218;6.548;2023-03-20T15:15:20;12.48;;;8.95;;
51901;SDS011;37929;53.218;6.548;2023-03-20T15:17:39;13.48;;;9.35;;
51901;SDS011;37929;53.218;6.548;2023-03-20T15:22:58;14.15;;;9.65;;
51901;SDS011;37929;53.218;6.548;2023-03-20T15:28:07;13.82;;;9.85;;
51901;SDS011;37929;53.218;6.548;2023-03-20T15:30:38;14.65;;;10.20;;
51901;SDS011;37929;53.218;6.548;2023-03-20T15:33:05;13.63;;;10.20;;
51901;SDS011;37929;53.218;6.548;2023-03-20T15:35:32;18.35;;;10.98;;
51901;SDS011;37929;53.218;6.548;2023-03-20T15:38:02;18.42;;;11.00;;
51901;SDS011;37929;53.218;6.548;2023-03-20T15:40:31;14.07;;;9.85;;
51901;SDS011;37929;53.218;6.548;2023-03-20T15:42:58;18.52;;;10.82;;
51901;SDS011;37929;53.218;6.548;2023-03-20T15:45:31;15.85;;;10.40;;
51901;SDS011;37929;53.218;6.548;2023-03-20T15:47:59;16.58;;;11.05;;
51901;SDS011;37929;53.218;6.548;2023-03-20T15:50:36;14.63;;;10.25;;
51901;SDS011;37929;53.218;6.548;2023-03-20T15:53:06;14.23;;;10.02;;
51901;SDS011;37929;53.218;6.548;2023-03-20T15:55:35;16.33;;;10.10;;
51901;SDS011;37929;53.218;6.548;2023-03-20T15:58:02;15.35;;;10.07;;
51901;SDS011;37929;53.218;6.548;2023-03-20T16:00:29;15.77;;;11.85;;
51901;SDS011;37929;53.218;6.548;2023-03-20T16:02:58;18.42;;;10.60;;
51901;SDS011;37929;53.218;6.548;2023-03-20T16:05:28;19.20;;;11.48;;
51901;SDS011;37929;53.218;6.548;2023-03-20T16:07:55;16.83;;;10.35;;
51901;SDS011;37929;53.218;6.548;2023-03-20T16:10:28;14.75;;;10.40;;
51901;SDS011;37929;53.218;6.548;2023-03-20T16:13:02;15.65;;;10.63;;
51901;SDS011;37929;53.218;6.548;2023-03-20T16:15:30;16.20;;;10.63;;
51901;SDS011;37929;53.218;6.548;2023-03-20T16:17:59;16.52;;;10.93;;
51901;SDS011;37929;53.218;6.548;2023-03-20T16:20:32;17.77;;;10.73;;
51901;SDS011;37929;53.218;6.548;2023-03-20T16:23:04;17.45;;;10.30;;
51901;SDS011;37929;53.218;6.548;2023-03-20T16:25:32;16.45;;;10.40;;
51901;SDS011;37929;53.218;6.548;2023-03-20T16:27:59;15.05;;;9.73;;
51901;SDS011;37929;53.218;6.548;2023-03-20T16:30:26;15.43;;;9.85;;
51901;SDS011;37929;53.218;6.548;2023-03-20T16:32:59;15.27;;;10.05;;
51901;SDS011;37929;53.218;6.548;2023-03-20T16:35:39;15.65;;;10.23;;
51901;SDS011;37929;53.218;6.548;2023-03-20T16:38:24;15.13;;;9.43;;
51901;SDS011;37929;53.218;6.548;2023-03-20T16:40:54;15.02;;;9.68;;
51901;SDS011;37929;53.218;6.548;2023-03-20T16:43:24;16.00;;;9.25;;
51901;SDS011;37929;53.218;6.548;2023-03-20T16:45:55;15.45;;;9.40;;
51901;SDS011;37929;53.218;6.548;2023-03-20T16:48:31;14.38;;;9.63;;
51901;SDS011;37929;53.218;6.548;2023-03-20T16:51:14;16.80;;;9.50;;
51901;SDS011;37929;53.218;6.548;2023-03-20T16:53:55;14.85;;;8.82;;
51901;SDS011;37929;53.218;6.548;2023-03-20T16:58:56;14.15;;;8.98;;
51901;SDS011;37929;53.218;6.548;2023-03-20T17:01:23;13.90;;;8.60;;
51901;SDS011;37929;53.218;6.548;2023-03-20T17:04:10;13.27;;;8.57;;
51901;SDS011;37929;53.218;6.548;2023-03-20T17:06:54;14.73;;;8.98;;
51901;SDS011;37929;53.218;6.548;2023-03-20T17:09:27;13.50;;;8.88;;
51901;SDS011;37929;53.218;6.548;2023-03-20T17:12:14;14.65;;;8.02;;
51901;SDS011;37929;53.218;6.548;2023-03-20T17:14:42;11.65;;;7.93;;
51901;SDS011;37929;53.218;6.548;2023-03-20T17:17:18;15.35;;;9.23;;
51901;SDS011;37929;53.218;6.548;2023-03-20T17:19:46;13.93;;;9.05;;
51901;SDS011;37929;53.218;6.548;2023-03-20T17:22:21;15.40;;;10.10;;
51901;SDS011;37929;53.218;6.548;2023-03-20T17:24:49;16.90;;;9.40;;
51901;SDS011;37929;53.218;6.548;2023-03-20T17:27:17;12.27;;;8.30;;
51901;SDS011;37929;53.218;6.548;2023-03-20T17:29:44;13.10;;;8.88;;
51901;SDS011;37929;53.218;6.548;2023-03-20T17:32:11;13.13;;;8.10;;
51901;SDS011;37929;53.218;6.548;2023-03-20T17:37:11;13.45;;;8.23;;
51901;SDS011;37929;53.218;6.548;2023-03-20T17:39:39;11.90;;;7.85;;
51901;SDS011;37929;53.218;6.548;2023-03-20T17:42:10;13.68;;;8.35;;
51901;SDS011;37929;53.218;6.548;2023-03-20T17:44:44;15.02;;;9.05;;
51901;SDS011;37929;53.218;6.548;2023-03-20T17:47:14;13.95;;;8.35;;
51901;SDS011;37929;53.218;6.548;2023-03-20T17:49:43;17.02;;;10.00;;
51901;SDS011;37929;53.218;6.548;2023-03-20T17:52:11;18.13;;;10.20;;
51901;SDS011;37929;53.218;6.548;2023-03-20T17:54:42;32.50;;;13.55;;
51901;SDS011;37929;53.218;6.548;2023-03-20T17:57:22;14.68;;;9.00;;
51901;SDS011;37929;53.218;6.548;2023-03-20T17:59:58;13.95;;;8.95;;
51901;SDS011;37929;53.218;6.548;2023-03-20T18:02:24;14.18;;;8.98;;